AZU285C SBRJ-SBMT
Flight info
| Callsign | AZU285C |
|---|---|
| Flight time | 1h 14m |
| Altitude | 12000 |
| Route | VAMIX DCT 231045S0434430W DCT UMBAD DCT NIBRU DCT 232338S0454754W/N0212F130 DCT SCP/N0209F120 DCT 230709S0463452W DCT VCP DCT STN |
| Aircraft | C408/M-SDFGRY/S |
Departure
| Time | 2026-05-05 15:13 |
|---|---|
| Airport | Santos Dumont Airport (SBRJ) |
Arrival
| Time | 2026-05-05 16:27 |
|---|---|
| Airport | Campo de Marte Airport (SBMT) |
| Time | Latitude | Longitude | Altitude | Speed | Heading |
|---|---|---|---|---|---|
| 2026-05-05 15:02 | -22.90706 | -43.16480 | 17 ft | 0 kts | 177° |
| 2026-05-05 15:09 | -22.90744 | -43.16478 | 20 ft | 10 kts | 176° |
| 2026-05-05 15:09 | -22.90801 | -43.16471 | 20 ft | 7 kts | 156° |
| 2026-05-05 15:10 | -22.90809 | -43.16443 | 19 ft | 4 kts | 67° |
| 2026-05-05 15:10 | -22.90761 | -43.16442 | 20 ft | 8 kts | 351° |
| 2026-05-05 15:10 | -22.90660 | -43.16448 | 22 ft | 20 kts | 357° |
| 2026-05-05 15:10 | -22.90584 | -43.16457 | 21 ft | 6 kts | 316° |
| 2026-05-05 15:11 | -22.90556 | -43.16503 | 19 ft | 11 kts | 343° |
| 2026-05-05 15:11 | -22.90496 | -43.16478 | 20 ft | 4 kts | 85° |
| 2026-05-05 15:11 | -22.90496 | -43.16475 | 20 ft | 3 kts | 87° |
| 2026-05-05 15:11 | -22.90493 | -43.16414 | 20 ft | 10 kts | 81° |
| 2026-05-05 15:12 | -22.90463 | -43.16327 | 20 ft | 10 kts | 98° |
| 2026-05-05 15:12 | -22.90571 | -43.16314 | 21 ft | 38 kts | 182° |
| 2026-05-05 15:12 | -22.91165 | -43.16274 | 34 ft | 126 kts | 176° |
| 2026-05-05 15:12 | -22.92118 | -43.16099 | 431 ft | 144 kts | 159° |
| 2026-05-05 15:13 | -22.92932 | -43.15472 | 960 ft | 145 kts | 138° |
| 2026-05-05 15:13 | -22.93724 | -43.14719 | 1425 ft | 153 kts | 140° |
| 2026-05-05 15:13 | -22.94653 | -43.14180 | 2059 ft | 146 kts | 172° |
| 2026-05-05 15:13 | -22.95517 | -43.14560 | 2777 ft | 133 kts | 224° |
| 2026-05-05 15:14 | -22.96247 | -43.15151 | 3504 ft | 130 kts | 211° |
| 2026-05-05 15:14 | -22.97077 | -43.15517 | 4195 ft | 128 kts | 191° |
| 2026-05-05 15:14 | -22.97958 | -43.15505 | 4889 ft | 126 kts | 179° |
| 2026-05-05 15:14 | -22.98823 | -43.15460 | 5563 ft | 124 kts | 175° |
| 2026-05-05 15:15 | -22.99674 | -43.15389 | 6236 ft | 122 kts | 176° |
| 2026-05-05 15:15 | -23.00511 | -43.15311 | 6901 ft | 120 kts | 176° |
| 2026-05-05 15:15 | -23.01337 | -43.15234 | 7544 ft | 119 kts | 175° |
| 2026-05-05 15:15 | -23.02173 | -43.15158 | 8027 ft | 134 kts | 175° |
| 2026-05-05 15:16 | -23.03243 | -43.15064 | 8032 ft | 170 kts | 175° |
| 2026-05-05 15:16 | -23.04475 | -43.15097 | 8022 ft | 186 kts | 197° |
| 2026-05-05 15:16 | -23.05555 | -43.15924 | 8024 ft | 196 kts | 223° |
| 2026-05-05 15:16 | -23.06328 | -43.17162 | 8018 ft | 203 kts | 245° |
| 2026-05-05 15:17 | -23.06671 | -43.18664 | 8017 ft | 207 kts | 258° |
| 2026-05-05 15:17 | -23.06916 | -43.20210 | 8019 ft | 207 kts | 256° |
| 2026-05-05 15:17 | -23.07217 | -43.21741 | 8017 ft | 207 kts | 255° |
| 2026-05-05 15:17 | -23.07540 | -43.23266 | 8015 ft | 205 kts | 253° |
| 2026-05-05 15:18 | -23.07845 | -43.24727 | 8002 ft | 192 kts | 255° |
| 2026-05-05 15:18 | -23.08128 | -43.26123 | 7995 ft | 188 kts | 255° |
| 2026-05-05 15:18 | -23.08413 | -43.27516 | 7996 ft | 190 kts | 255° |
| 2026-05-05 15:18 | -23.08701 | -43.28918 | 7994 ft | 190 kts | 255° |
| 2026-05-05 15:19 | -23.08988 | -43.30319 | 7995 ft | 190 kts | 255° |
| 2026-05-05 15:19 | -23.09277 | -43.31724 | 7993 ft | 191 kts | 255° |
| 2026-05-05 15:19 | -23.09566 | -43.33131 | 7992 ft | 191 kts | 255° |
| 2026-05-05 15:19 | -23.09853 | -43.34535 | 7995 ft | 191 kts | 255° |
| 2026-05-05 15:20 | -23.10141 | -43.35944 | 7994 ft | 191 kts | 255° |
| 2026-05-05 15:20 | -23.10430 | -43.37351 | 7994 ft | 191 kts | 255° |
| 2026-05-05 15:20 | -23.10717 | -43.38758 | 7995 ft | 191 kts | 255° |
| 2026-05-05 15:20 | -23.11005 | -43.40168 | 7994 ft | 191 kts | 255° |
| 2026-05-05 15:21 | -23.11293 | -43.41571 | 7995 ft | 191 kts | 255° |
| 2026-05-05 15:21 | -23.11581 | -43.42980 | 7995 ft | 191 kts | 255° |
| 2026-05-05 15:21 | -23.11867 | -43.44386 | 7996 ft | 190 kts | 255° |
| 2026-05-05 15:21 | -23.12154 | -43.45788 | 7996 ft | 190 kts | 255° |
| 2026-05-05 15:22 | -23.12440 | -43.47191 | 7997 ft | 190 kts | 255° |
| 2026-05-05 15:22 | -23.12726 | -43.48593 | 8000 ft | 190 kts | 255° |
| 2026-05-05 15:22 | -23.13011 | -43.49995 | 7999 ft | 190 kts | 255° |
| 2026-05-05 15:22 | -23.13298 | -43.51401 | 7999 ft | 190 kts | 255° |
| 2026-05-05 15:23 | -23.13584 | -43.52806 | 7997 ft | 190 kts | 255° |
| 2026-05-05 15:23 | -23.13869 | -43.54208 | 8002 ft | 190 kts | 255° |
| 2026-05-05 15:23 | -23.14156 | -43.55615 | 8002 ft | 190 kts | 255° |
| 2026-05-05 15:23 | -23.14442 | -43.57020 | 7999 ft | 190 kts | 255° |
| 2026-05-05 15:24 | -23.14726 | -43.58422 | 8004 ft | 190 kts | 255° |
| 2026-05-05 15:24 | -23.15014 | -43.59839 | 7915 ft | 194 kts | 255° |
| 2026-05-05 15:24 | -23.15307 | -43.61277 | 7823 ft | 196 kts | 255° |
| 2026-05-05 15:24 | -23.15601 | -43.62727 | 7734 ft | 197 kts | 255° |
| 2026-05-05 15:25 | -23.15896 | -43.64183 | 7635 ft | 197 kts | 255° |
| 2026-05-05 15:25 | -23.16193 | -43.65650 | 7475 ft | 200 kts | 255° |
| 2026-05-05 15:25 | -23.16494 | -43.67133 | 7311 ft | 201 kts | 255° |
| 2026-05-05 15:25 | -23.16795 | -43.68618 | 7152 ft | 202 kts | 255° |
| 2026-05-05 15:26 | -23.17092 | -43.70088 | 6986 ft | 201 kts | 255° |
| 2026-05-05 15:26 | -23.17394 | -43.71578 | 6822 ft | 201 kts | 255° |
| 2026-05-05 15:26 | -23.17694 | -43.73062 | 6662 ft | 201 kts | 255° |
| 2026-05-05 15:26 | -23.18006 | -43.74538 | 6496 ft | 200 kts | 252° |
| 2026-05-05 15:27 | -23.18394 | -43.75987 | 6321 ft | 200 kts | 252° |
| 2026-05-05 15:27 | -23.18768 | -43.77444 | 6148 ft | 200 kts | 252° |
| 2026-05-05 15:27 | -23.19143 | -43.78904 | 5976 ft | 200 kts | 252° |
| 2026-05-05 15:27 | -23.19518 | -43.80357 | 5806 ft | 200 kts | 253° |
| 2026-05-05 15:28 | -23.19894 | -43.81812 | 5634 ft | 200 kts | 253° |
| 2026-05-05 15:28 | -23.20271 | -43.83268 | 5465 ft | 200 kts | 253° |
| 2026-05-05 15:28 | -23.20647 | -43.84726 | 5297 ft | 200 kts | 253° |
| 2026-05-05 15:28 | -23.20896 | -43.85691 | 5192 ft | 200 kts | 253° |
| 2026-05-05 15:29 | -23.21267 | -43.87131 | 5175 ft | 195 kts | 253° |
| 2026-05-05 15:29 | -23.21747 | -43.88993 | 5166 ft | 192 kts | 253° |
| 2026-05-05 15:29 | -23.21990 | -43.89935 | 5163 ft | 191 kts | 253° |
| 2026-05-05 15:29 | -23.22348 | -43.91323 | 5163 ft | 190 kts | 253° |
| 2026-05-05 15:30 | -23.22820 | -43.93156 | 5165 ft | 189 kts | 253° |
| 2026-05-05 15:30 | -23.23060 | -43.94088 | 5164 ft | 189 kts | 253° |
| 2026-05-05 15:30 | -23.23415 | -43.95467 | 5161 ft | 189 kts | 253° |
| 2026-05-05 15:30 | -23.23770 | -43.96848 | 5164 ft | 189 kts | 252° |
| 2026-05-05 15:31 | -23.24128 | -43.98236 | 5166 ft | 193 kts | 253° |
| 2026-05-05 15:31 | -23.24491 | -43.99648 | 5173 ft | 195 kts | 253° |
| 2026-05-05 15:31 | -23.24858 | -44.01076 | 5171 ft | 196 kts | 253° |
| 2026-05-05 15:31 | -23.25226 | -44.02507 | 5175 ft | 197 kts | 253° |
| 2026-05-05 15:32 | -23.25594 | -44.03942 | 5176 ft | 198 kts | 253° |
| 2026-05-05 15:32 | -23.25964 | -44.05383 | 5177 ft | 198 kts | 253° |
| 2026-05-05 15:32 | -23.26334 | -44.06826 | 5181 ft | 198 kts | 253° |
| 2026-05-05 15:32 | -23.26709 | -44.08290 | 5194 ft | 203 kts | 253° |
| 2026-05-05 15:33 | -23.27088 | -44.09766 | 5284 ft | 203 kts | 253° |
| 2026-05-05 15:33 | -23.27467 | -44.11247 | 5376 ft | 203 kts | 253° |
| 2026-05-05 15:33 | -23.27847 | -44.12732 | 5467 ft | 204 kts | 253° |
| 2026-05-05 15:33 | -23.28220 | -44.14195 | 5557 ft | 203 kts | 254° |
| 2026-05-05 15:34 | -23.28546 | -44.15720 | 5652 ft | 204 kts | 255° |
| 2026-05-05 15:34 | -23.28891 | -44.17218 | 5727 ft | 204 kts | 255° |
| 2026-05-05 15:34 | -23.29233 | -44.18717 | 5813 ft | 204 kts | 255° |
| 2026-05-05 15:34 | -23.29564 | -44.20199 | 5893 ft | 205 kts | 255° |
| 2026-05-05 15:35 | -23.29900 | -44.21707 | 5973 ft | 205 kts | 255° |
| 2026-05-05 15:35 | -23.30237 | -44.23216 | 6059 ft | 205 kts | 255° |
| 2026-05-05 15:35 | -23.30573 | -44.24722 | 6140 ft | 205 kts | 255° |
| 2026-05-05 15:35 | -23.30910 | -44.26232 | 6221 ft | 205 kts | 255° |
| 2026-05-05 15:36 | -23.31246 | -44.27741 | 6298 ft | 205 kts | 255° |
| 2026-05-05 15:36 | -23.31583 | -44.29253 | 6377 ft | 206 kts | 255° |
| 2026-05-05 15:36 | -23.31920 | -44.30764 | 6452 ft | 206 kts | 255° |
| 2026-05-05 15:36 | -23.32256 | -44.32275 | 6519 ft | 206 kts | 255° |
| 2026-05-05 15:37 | -23.32594 | -44.33793 | 6584 ft | 206 kts | 255° |
| 2026-05-05 15:37 | -23.32931 | -44.35305 | 6649 ft | 206 kts | 255° |
| 2026-05-05 15:37 | -23.33269 | -44.36824 | 6666 ft | 208 kts | 255° |
| 2026-05-05 15:37 | -23.33610 | -44.38358 | 6676 ft | 209 kts | 255° |
| 2026-05-05 15:38 | -23.33954 | -44.39902 | 6668 ft | 210 kts | 255° |
| 2026-05-05 15:38 | -23.34298 | -44.41448 | 6671 ft | 210 kts | 255° |
| 2026-05-05 15:38 | -23.34643 | -44.42999 | 6673 ft | 211 kts | 255° |
| 2026-05-05 15:38 | -23.34987 | -44.44549 | 6674 ft | 211 kts | 255° |
| 2026-05-05 15:39 | -23.35333 | -44.46101 | 6674 ft | 211 kts | 255° |
| 2026-05-05 15:39 | -23.35679 | -44.47653 | 6674 ft | 211 kts | 255° |
| 2026-05-05 15:39 | -23.36024 | -44.49206 | 6673 ft | 211 kts | 255° |
| 2026-05-05 15:39 | -23.36370 | -44.50760 | 6677 ft | 211 kts | 255° |
| 2026-05-05 15:40 | -23.36716 | -44.52312 | 6676 ft | 211 kts | 255° |
| 2026-05-05 15:40 | -23.37061 | -44.53863 | 6675 ft | 211 kts | 255° |
| 2026-05-05 15:40 | -23.37406 | -44.55414 | 6678 ft | 211 kts | 255° |
| 2026-05-05 15:40 | -23.37751 | -44.56961 | 6678 ft | 211 kts | 255° |
| 2026-05-05 15:41 | -23.38094 | -44.58502 | 6708 ft | 210 kts | 255° |
| 2026-05-05 15:41 | -23.38437 | -44.60046 | 6711 ft | 210 kts | 255° |
| 2026-05-05 15:41 | -23.38781 | -44.61593 | 6713 ft | 210 kts | 255° |
| 2026-05-05 15:41 | -23.39126 | -44.63141 | 6718 ft | 210 kts | 255° |
| 2026-05-05 15:42 | -23.39471 | -44.64692 | 6720 ft | 211 kts | 255° |
| 2026-05-05 15:42 | -23.39816 | -44.66241 | 6722 ft | 210 kts | 255° |
| 2026-05-05 15:42 | -23.40156 | -44.67773 | 6812 ft | 206 kts | 255° |
| 2026-05-05 15:42 | -23.40490 | -44.69279 | 6901 ft | 203 kts | 255° |
| 2026-05-05 15:43 | -23.40821 | -44.70772 | 6989 ft | 202 kts | 255° |
| 2026-05-05 15:43 | -23.41152 | -44.72259 | 7079 ft | 202 kts | 255° |
| 2026-05-05 15:43 | -23.41481 | -44.73743 | 7170 ft | 202 kts | 255° |
| 2026-05-05 15:43 | -23.41815 | -44.75244 | 7171 ft | 206 kts | 255° |
| 2026-05-05 15:44 | -23.42154 | -44.76766 | 7175 ft | 207 kts | 255° |
| 2026-05-05 15:44 | -23.42493 | -44.78296 | 7183 ft | 208 kts | 255° |
| 2026-05-05 15:44 | -23.42833 | -44.79829 | 7180 ft | 208 kts | 255° |
| 2026-05-05 15:44 | -23.43173 | -44.81368 | 7186 ft | 209 kts | 255° |
| 2026-05-05 15:45 | -23.43512 | -44.82904 | 7186 ft | 209 kts | 255° |
| 2026-05-05 15:45 | -23.43851 | -44.84440 | 7187 ft | 209 kts | 255° |
| 2026-05-05 15:45 | -23.44189 | -44.85978 | 7189 ft | 209 kts | 255° |
| 2026-05-05 15:45 | -23.44514 | -44.87519 | 7185 ft | 208 kts | 260° |
| 2026-05-05 15:46 | -23.44334 | -44.89079 | 7182 ft | 210 kts | 283° |
| 2026-05-05 15:46 | -23.44017 | -44.90634 | 7184 ft | 210 kts | 281° |
| 2026-05-05 15:46 | -23.43719 | -44.92200 | 7187 ft | 211 kts | 279° |
| 2026-05-05 15:46 | -23.43442 | -44.93746 | 7190 ft | 211 kts | 279° |
| 2026-05-05 15:47 | -23.43160 | -44.95334 | 7192 ft | 211 kts | 279° |
| 2026-05-05 15:47 | -23.42977 | -44.96373 | 7194 ft | 211 kts | 279° |
| 2026-05-05 15:47 | -23.42610 | -44.98451 | 7189 ft | 211 kts | 279° |
| 2026-05-05 15:47 | -23.42333 | -45.00020 | 7187 ft | 211 kts | 279° |
| 2026-05-05 15:48 | -23.42056 | -45.01590 | 7194 ft | 211 kts | 279° |
| 2026-05-05 15:48 | -23.41776 | -45.03180 | 7193 ft | 211 kts | 279° |
| 2026-05-05 15:48 | -23.41499 | -45.04752 | 7195 ft | 212 kts | 279° |
| 2026-05-05 15:48 | -23.41220 | -45.06331 | 7206 ft | 213 kts | 279° |
| 2026-05-05 15:49 | -23.40938 | -45.07925 | 7194 ft | 213 kts | 279° |
| 2026-05-05 15:49 | -23.40659 | -45.09502 | 7194 ft | 212 kts | 279° |
| 2026-05-05 15:49 | -23.40392 | -45.11083 | 7191 ft | 211 kts | 278° |
| 2026-05-05 15:49 | -23.40136 | -45.12659 | 7194 ft | 211 kts | 279° |
| 2026-05-05 15:50 | -23.39887 | -45.14237 | 7194 ft | 212 kts | 278° |
| 2026-05-05 15:50 | -23.39637 | -45.15819 | 7195 ft | 212 kts | 278° |
| 2026-05-05 15:50 | -23.39381 | -45.17402 | 7195 ft | 212 kts | 279° |
| 2026-05-05 15:50 | -23.39071 | -45.18967 | 7198 ft | 212 kts | 283° |
| 2026-05-05 15:51 | -23.38695 | -45.20520 | 7197 ft | 212 kts | 284° |
| 2026-05-05 15:51 | -23.38313 | -45.22067 | 7194 ft | 212 kts | 284° |
| 2026-05-05 15:51 | -23.37932 | -45.23620 | 7194 ft | 213 kts | 284° |
| 2026-05-05 15:51 | -23.37553 | -45.25176 | 7195 ft | 213 kts | 283° |
| 2026-05-05 15:52 | -23.37171 | -45.26758 | 7200 ft | 213 kts | 284° |
| 2026-05-05 15:52 | -23.36799 | -45.28302 | 7197 ft | 216 kts | 284° |
| 2026-05-05 15:52 | -23.36414 | -45.29890 | 7205 ft | 219 kts | 283° |
| 2026-05-05 15:52 | -23.36030 | -45.31487 | 7195 ft | 217 kts | 283° |
| 2026-05-05 15:53 | -23.35645 | -45.33070 | 7198 ft | 215 kts | 284° |
| 2026-05-05 15:53 | -23.35259 | -45.34659 | 7209 ft | 214 kts | 284° |
| 2026-05-05 15:53 | -23.34877 | -45.36234 | 7208 ft | 216 kts | 283° |
| 2026-05-05 15:53 | -23.34499 | -45.37812 | 7204 ft | 215 kts | 284° |
| 2026-05-05 15:54 | -23.34119 | -45.39383 | 7202 ft | 214 kts | 283° |
| 2026-05-05 15:54 | -23.33738 | -45.40959 | 7204 ft | 215 kts | 283° |
| 2026-05-05 15:54 | -23.33352 | -45.42531 | 7201 ft | 215 kts | 283° |
| 2026-05-05 15:54 | -23.32968 | -45.44111 | 7220 ft | 216 kts | 283° |
| 2026-05-05 15:55 | -23.32577 | -45.45674 | 7213 ft | 217 kts | 284° |
| 2026-05-05 15:55 | -23.32185 | -45.47257 | 7219 ft | 218 kts | 284° |
| 2026-05-05 15:55 | -23.31797 | -45.48848 | 7222 ft | 218 kts | 284° |
| 2026-05-05 15:55 | -23.31404 | -45.50444 | 7219 ft | 218 kts | 284° |
| 2026-05-05 15:56 | -23.31020 | -45.52038 | 7217 ft | 217 kts | 283° |
| 2026-05-05 15:56 | -23.30634 | -45.53627 | 7207 ft | 218 kts | 284° |
| 2026-05-05 15:56 | -23.30240 | -45.55215 | 7210 ft | 217 kts | 284° |
| 2026-05-05 15:56 | -23.29850 | -45.56801 | 7210 ft | 217 kts | 284° |
| 2026-05-05 15:57 | -23.29457 | -45.58392 | 7227 ft | 217 kts | 283° |
| 2026-05-05 15:57 | -23.29067 | -45.59978 | 7233 ft | 217 kts | 283° |
| 2026-05-05 15:57 | -23.28674 | -45.61560 | 7223 ft | 216 kts | 284° |
| 2026-05-05 15:57 | -23.28281 | -45.63141 | 7225 ft | 217 kts | 284° |
| 2026-05-05 15:58 | -23.27891 | -45.64714 | 7239 ft | 214 kts | 283° |
| 2026-05-05 15:58 | -23.27500 | -45.66292 | 7248 ft | 218 kts | 283° |
| 2026-05-05 15:58 | -23.27105 | -45.67885 | 7251 ft | 219 kts | 284° |
| 2026-05-05 15:58 | -23.26708 | -45.69484 | 7260 ft | 220 kts | 284° |
| 2026-05-05 15:59 | -23.26319 | -45.71092 | 7258 ft | 221 kts | 284° |
| 2026-05-05 15:59 | -23.25919 | -45.72701 | 7207 ft | 219 kts | 284° |
| 2026-05-05 15:59 | -23.25531 | -45.74293 | 7202 ft | 216 kts | 284° |
| 2026-05-05 15:59 | -23.25138 | -45.75889 | 7202 ft | 214 kts | 284° |
| 2026-05-05 16:00 | -23.24753 | -45.77452 | 7201 ft | 214 kts | 284° |
| 2026-05-05 16:00 | -23.24368 | -45.79018 | 7205 ft | 216 kts | 284° |
| 2026-05-05 16:00 | -23.23980 | -45.80591 | 7206 ft | 216 kts | 284° |
| 2026-05-05 16:00 | -23.23599 | -45.82149 | 7204 ft | 217 kts | 284° |
| 2026-05-05 16:01 | -23.23231 | -45.83738 | 7206 ft | 216 kts | 281° |
| 2026-05-05 16:01 | -23.23010 | -45.85352 | 7200 ft | 215 kts | 276° |
| 2026-05-05 16:01 | -23.22801 | -45.86963 | 7197 ft | 216 kts | 279° |
| 2026-05-05 16:01 | -23.22523 | -45.88563 | 7193 ft | 216 kts | 274° |
| 2026-05-05 16:02 | -23.22553 | -45.90187 | 7197 ft | 214 kts | 268° |
| 2026-05-05 16:02 | -23.22446 | -45.91803 | 7197 ft | 216 kts | 277° |
| 2026-05-05 16:02 | -23.22185 | -45.93412 | 7199 ft | 216 kts | 280° |
| 2026-05-05 16:02 | -23.21909 | -45.95018 | 7201 ft | 216 kts | 279° |
| 2026-05-05 16:03 | -23.21655 | -45.96619 | 7207 ft | 215 kts | 278° |
| 2026-05-05 16:03 | -23.21407 | -45.98230 | 7209 ft | 216 kts | 279° |
| 2026-05-05 16:03 | -23.21156 | -45.99840 | 7209 ft | 217 kts | 279° |
| 2026-05-05 16:03 | -23.20903 | -46.01455 | 7211 ft | 216 kts | 278° |
| 2026-05-05 16:04 | -23.20651 | -46.03060 | 7208 ft | 215 kts | 279° |
| 2026-05-05 16:04 | -23.20480 | -46.04149 | 7204 ft | 215 kts | 279° |
| 2026-05-05 16:04 | -23.20232 | -46.05729 | 7227 ft | 214 kts | 279° |
| 2026-05-05 16:04 | -23.19981 | -46.07327 | 7238 ft | 215 kts | 279° |
| 2026-05-05 16:05 | -23.19727 | -46.08938 | 7231 ft | 216 kts | 279° |
| 2026-05-05 16:05 | -23.19476 | -46.10541 | 7226 ft | 214 kts | 279° |
| 2026-05-05 16:05 | -23.19223 | -46.12140 | 7223 ft | 214 kts | 279° |
| 2026-05-05 16:05 | -23.18969 | -46.13756 | 7227 ft | 215 kts | 279° |
| 2026-05-05 16:06 | -23.18803 | -46.15346 | 7218 ft | 214 kts | 269° |
| 2026-05-05 16:06 | -23.18875 | -46.16980 | 7222 ft | 214 kts | 266° |
| 2026-05-05 16:06 | -23.18965 | -46.18590 | 7214 ft | 214 kts | 266° |
| 2026-05-05 16:06 | -23.19059 | -46.20207 | 7215 ft | 214 kts | 266° |
| 2026-05-05 16:07 | -23.19160 | -46.21812 | 7214 ft | 214 kts | 264° |
| 2026-05-05 16:07 | -23.19468 | -46.23387 | 7214 ft | 213 kts | 252° |
| 2026-05-05 16:07 | -23.19933 | -46.24915 | 7222 ft | 213 kts | 251° |
| 2026-05-05 16:07 | -23.20412 | -46.26435 | 7223 ft | 213 kts | 251° |
| 2026-05-05 16:08 | -23.20890 | -46.27952 | 7224 ft | 212 kts | 251° |
| 2026-05-05 16:08 | -23.21371 | -46.29467 | 7123 ft | 216 kts | 251° |
| 2026-05-05 16:08 | -23.21871 | -46.31036 | 7015 ft | 217 kts | 251° |
| 2026-05-05 16:08 | -23.22361 | -46.32575 | 7021 ft | 214 kts | 251° |
| 2026-05-05 16:09 | -23.22842 | -46.34090 | 7024 ft | 215 kts | 251° |
| 2026-05-05 16:09 | -23.23338 | -46.35632 | 7011 ft | 215 kts | 251° |
| 2026-05-05 16:09 | -23.23830 | -46.37162 | 7017 ft | 214 kts | 251° |
| 2026-05-05 16:09 | -23.24318 | -46.38685 | 7021 ft | 213 kts | 251° |
| 2026-05-05 16:10 | -23.24807 | -46.40205 | 7025 ft | 213 kts | 251° |
| 2026-05-05 16:10 | -23.25296 | -46.41728 | 7022 ft | 213 kts | 251° |
| 2026-05-05 16:10 | -23.25785 | -46.43241 | 7030 ft | 212 kts | 251° |
| 2026-05-05 16:10 | -23.26273 | -46.44750 | 7029 ft | 211 kts | 251° |
| 2026-05-05 16:11 | -23.26762 | -46.46264 | 7033 ft | 212 kts | 251° |
| 2026-05-05 16:11 | -23.28301 | -46.50764 | 7036 ft | 211 kts | 245° |
| 2026-05-05 16:12 | -23.28953 | -46.52206 | 7025 ft | 213 kts | 244° |
| 2026-05-05 16:12 | -23.30294 | -46.55105 | 7038 ft | 215 kts | 244° |
| 2026-05-05 16:13 | -23.32292 | -46.59452 | 7044 ft | 215 kts | 245° |
| 2026-05-05 16:13 | -23.32956 | -46.60909 | 7035 ft | 215 kts | 244° |
| 2026-05-05 16:13 | -23.33627 | -46.62360 | 7025 ft | 214 kts | 244° |
| 2026-05-05 16:14 | -23.34968 | -46.65227 | 7029 ft | 211 kts | 239° |
| 2026-05-05 16:14 | -23.37194 | -46.67313 | 7003 ft | 212 kts | 217° |
| 2026-05-05 16:15 | -23.39652 | -46.69138 | 7007 ft | 216 kts | 202° |
| 2026-05-05 16:15 | -23.42592 | -46.69561 | 7008 ft | 211 kts | 205° |
| 2026-05-05 16:16 | -23.43998 | -46.72127 | 7021 ft | 209 kts | 266° |
| 2026-05-05 16:16 | -23.44038 | -46.75242 | 7028 ft | 204 kts | 272° |
| 2026-05-05 16:17 | -23.43948 | -46.78346 | 7002 ft | 206 kts | 272° |
| 2026-05-05 16:17 | -23.43899 | -46.79904 | 7012 ft | 207 kts | 272° |
| 2026-05-05 16:18 | -23.43812 | -46.82957 | 7000 ft | 195 kts | 272° |
| 2026-05-05 16:18 | -23.43767 | -46.84430 | 6888 ft | 195 kts | 272° |
| 2026-05-05 16:18 | -23.43404 | -46.87323 | 6587 ft | 193 kts | 280° |
| 2026-05-05 16:19 | -23.43187 | -46.88757 | 6436 ft | 191 kts | 280° |
| 2026-05-05 16:19 | -23.42996 | -46.90190 | 6219 ft | 193 kts | 270° |
| 2026-05-05 16:19 | -23.44589 | -46.92365 | 5977 ft | 199 kts | 206° |
| 2026-05-05 16:20 | -23.47226 | -46.93122 | 5649 ft | 203 kts | 170° |
| 2026-05-05 16:20 | -23.49071 | -46.91062 | 5071 ft | 197 kts | 105° |
| 2026-05-05 16:21 | -23.49479 | -46.88111 | 4223 ft | 196 kts | 93° |
| 2026-05-05 16:22 | -23.49765 | -46.83977 | 3797 ft | 162 kts | 93° |
| 2026-05-05 16:22 | -23.49925 | -46.81707 | 3818 ft | 141 kts | 94° |
| 2026-05-05 16:23 | -23.50075 | -46.79617 | 3814 ft | 135 kts | 93° |
| 2026-05-05 16:23 | -23.50130 | -46.78599 | 3806 ft | 134 kts | 88° |
| 2026-05-05 16:23 | -23.50112 | -46.76630 | 3839 ft | 123 kts | 90° |
| 2026-05-05 16:24 | -23.50133 | -46.75707 | 3820 ft | 121 kts | 88° |
| 2026-05-05 16:24 | -23.50046 | -46.74796 | 3785 ft | 120 kts | 78° |
| 2026-05-05 16:24 | -23.49748 | -46.72973 | 3783 ft | 124 kts | 82° |
| 2026-05-05 16:25 | -23.49722 | -46.72028 | 3741 ft | 124 kts | 89° |
| 2026-05-05 16:25 | -23.49898 | -46.70123 | 3574 ft | 127 kts | 97° |
| 2026-05-05 16:25 | -23.50021 | -46.69164 | 3427 ft | 128 kts | 98° |
| 2026-05-05 16:26 | -23.50315 | -46.67303 | 3029 ft | 120 kts | 99° |
| 2026-05-05 16:26 | -23.50609 | -46.65600 | 2715 ft | 110 kts | 100° |
| 2026-05-05 16:27 | -23.50747 | -46.64776 | 2522 ft | 111 kts | 99° |
| 2026-05-05 16:27 | -23.50881 | -46.63962 | 2391 ft | 101 kts | 98° |
| 2026-05-05 16:27 | -23.50942 | -46.63558 | 2379 ft | 43 kts | 92° |
| 2026-05-05 16:27 | -23.50992 | -46.63275 | 2378 ft | 23 kts | 98° |
| 2026-05-05 16:28 | -23.51016 | -46.63107 | 2377 ft | 21 kts | 100° |
| 2026-05-05 16:28 | -23.51042 | -46.63014 | 2377 ft | 7 kts | 156° |
| 2026-05-05 16:28 | -23.51096 | -46.63033 | 2377 ft | 9 kts | 257° |
| 2026-05-05 16:28 | -23.51081 | -46.63108 | 2377 ft | 15 kts | 285° |
| 2026-05-05 16:29 | -23.51065 | -46.63214 | 2377 ft | 7 kts | 277° |
| 2026-05-05 16:29 | -23.51048 | -46.63315 | 2377 ft | 15 kts | 282° |
| 2026-05-05 16:29 | -23.51031 | -46.63411 | 2377 ft | 12 kts | 281° |
| 2026-05-05 16:29 | -23.51054 | -46.63448 | 2377 ft | 8 kts | 167° |
| 2026-05-05 16:30 | -23.51111 | -46.63438 | 2377 ft | 11 kts | 175° |
| 2026-05-05 16:30 | -23.51167 | -46.63429 | 2377 ft | 1 kts | 159° |
| 2026-05-05 16:30 | -23.51181 | -46.63425 | 2377 ft | 3 kts | 170° |
| 2026-05-05 16:30 | -23.51211 | -46.63413 | 2377 ft | 4 kts | 125° |
| 2026-05-05 16:31 | -23.51208 | -46.63392 | 2377 ft | 2 kts | 34° |
| 2026-05-05 16:31 | -23.51206 | -46.63391 | 2377 ft | 1 kts | 25° |
| 2026-05-05 16:31 | -23.51196 | -46.63390 | 2377 ft | 0 kts | 3° |
| 2026-05-05 16:31 | -23.51190 | -46.63391 | 2377 ft | 0 kts | 4° |